Time;durP1;ratioP1;P1;durP2;ratioP2;P2;SDS_P1;SDS_P2;PMS_P1;PMS_P2;Temp;Humidity;BMP_temperature;BMP_pressure;BME280_temperature;BME280_humidity;BME280_pressure;Samples;Min_cycle;Max_cycle;Signal;HPM_P1;HPM_P2
2021/12/02 00:00:58;;;;;;;1.20;0.10;;;;;;;;;;5011760;28;20021;-75
2021/12/02 00:03:24;;;;;;;0.35;0.10;;;;;;;;;;5012607;28;20166;-75
2021/12/02 00:05:49;;;;;;;0.10;0.03;;;;;;;;;;4996988;28;20026;-75
2021/12/02 00:08:14;;;;;;;0.30;0.10;;;;;;;;;;5012919;28;20076;-74
2021/12/02 00:10:41;;;;;;;0.10;0.10;;;;;;;;;;5013867;28;20026;-75
2021/12/02 00:13:06;;;;;;;0.10;0.03;;;;;;;;;;5011951;28;20021;-75
2021/12/02 00:15:36;;;;;;;0.20;0.00;;;;;;;;;;4999270;28;20486;-75
2021/12/02 00:21:05;;;;;;;0.30;0.00;;;;;;;;;;4986904;28;20042;-75
2021/12/02 00:23:32;;;;;;;0.20;0.10;;;;;;;;;;5002894;28;20042;-75
2021/12/02 00:25:58;;;;;;;0.20;0.00;;;;;;;;;;5012601;28;20529;-75
2021/12/02 00:28:24;;;;;;;0.80;0.00;;;;;;;;;;5006303;28;20117;-75
2021/12/02 00:30:49;;;;;;;0.43;0.00;;;;;;;;;;5006024;28;20030;-75
2021/12/02 00:33:15;;;;;;;0.20;0.00;;;;;;;;;;5001710;28;20116;-75
2021/12/02 00:35:40;;;;;;;0.52;0.10;;;;;;;;;;4999805;28;20046;-75
2021/12/02 00:38:07;;;;;;;0.32;0.00;;;;;;;;;;5012347;28;20022;-75
2021/12/02 00:40:34;;;;;;;0.00;0.00;;;;;;;;;;5011263;28;20292;-75
2021/12/02 00:42:59;;;;;;;0.30;0.00;;;;;;;;;;5012807;28;20076;-75
2021/12/02 00:45:25;;;;;;;0.10;0.10;;;;;;;;;;5006372;28;20061;-74
2021/12/02 00:47:51;;;;;;;0.08;0.00;;;;;;;;;;4997999;28;20401;-75
2021/12/02 00:50:17;;;;;;;0.10;0.00;;;;;;;;;;4976938;28;20142;-75
2021/12/02 00:52:43;;;;;;;0.10;0.00;;;;;;;;;;4993074;28;20041;-74
2021/12/02 00:55:08;;;;;;;0.35;0.00;;;;;;;;;;5012575;28;20018;-74
2021/12/02 00:57:38;;;;;;;0.13;0.00;;;;;;;;;;5011798;28;20026;-75
2021/12/02 01:00:04;;;;;;;0.32;0.03;;;;;;;;;;5011744;28;20475;-74
2021/12/02 01:02:32;;;;;;;0.68;0.10;;;;;;;;;;5008697;28;20490;-75
2021/12/02 01:04:57;;;;;;;0.65;0.05;;;;;;;;;;5011257;28;20100;-74
2021/12/02 01:07:23;;;;;;;0.77;0.10;;;;;;;;;;4992630;28;20124;-75
2021/12/02 01:09:49;;;;;;;0.30;0.00;;;;;;;;;;4995347;28;20124;-75
2021/12/02 01:12:15;;;;;;;0.00;0.00;;;;;;;;;;5012554;28;20028;-75
2021/12/02 01:14:42;;;;;;;1.60;0.10;;;;;;;;;;5012148;28;20113;-75
2021/12/02 01:17:08;;;;;;;1.73;0.10;;;;;;;;;;5003247;28;20026;-74
2021/12/02 01:19:33;;;;;;;1.35;0.00;;;;;;;;;;5012411;28;20545;-74
2021/12/02 01:22:00;;;;;;;1.95;0.20;;;;;;;;;;4996209;28;20021;-75
2021/12/02 01:24:26;;;;;;;1.98;0.32;;;;;;;;;;5011743;28;20091;-75
2021/12/02 01:26:52;;;;;;;0.82;0.10;;;;;;;;;;5010210;28;20430;-74
2021/12/02 01:29:18;;;;;;;0.52;0.03;;;;;;;;;;5004515;28;20063;-74
2021/12/02 01:31:47;;;;;;;2.75;0.10;;;;;;;;;;4997759;28;20450;-75
2021/12/02 01:34:12;;;;;;;0.88;0.10;;;;;;;;;;4998213;28;20018;-74
2021/12/02 01:36:39;;;;;;;2.10;0.10;;;;;;;;;;5011340;28;20156;-74
2021/12/02 01:39:05;;;;;;;1.75;0.22;;;;;;;;;;5009165;28;20489;-74
2021/12/02 01:41:45;;;;;;;1.92;0.10;;;;;;;;;;4995716;28;20054;-75
2021/12/02 01:44:12;;;;;;;0.88;0.10;;;;;;;;;;5011406;28;20022;-75
2021/12/02 01:46:38;;;;;;;1.40;0.10;;;;;;;;;;5010698;28;20079;-74
2021/12/02 01:49:04;;;;;;;3.03;0.32;;;;;;;;;;4998443;28;20102;-74
2021/12/02 01:51:31;;;;;;;0.63;0.10;;;;;;;;;;5011416;28;20034;-74
2021/12/02 01:54:01;;;;;;;1.02;0.30;;;;;;;;;;5010953;28;20033;-74
2021/12/02 01:56:27;;;;;;;1.80;0.38;;;;;;;;;;5011274;28;20022;-74
2021/12/02 01:58:52;;;;;;;3.50;0.10;;;;;;;;;;5005279;28;20017;-74
2021/12/02 02:01:25;;;;;;;0.98;0.08;;;;;;;;;;4987821;28;20040;-74
2021/12/02 02:03:51;;;;;;;1.05;0.10;;;;;;;;;;5006861;28;20030;-74
2021/12/02 02:06:28;;;;;;;1.42;0.10;;;;;;;;;;5011733;28;20032;-74
2021/12/02 02:08:54;;;;;;;3.13;0.38;;;;;;;;;;5006480;28;20080;-74
2021/12/02 02:11:20;;;;;;;2.17;0.20;;;;;;;;;;5001089;28;20026;-74
2021/12/02 02:13:45;;;;;;;1.75;0.15;;;;;;;;;;5012464;28;20022;-74
2021/12/02 02:16:10;;;;;;;0.82;0.00;;;;;;;;;;5010375;28;20544;-74
2021/12/02 02:18:36;;;;;;;0.25;0.10;;;;;;;;;;5010743;28;20109;-74
2021/12/02 02:21:03;;;;;;;0.50;0.10;;;;;;;;;;5010692;28;20022;-74
2021/12/02 02:23:32;;;;;;;0.60;0.10;;;;;;;;;;5010703;28;20104;-74
2021/12/02 02:25:58;;;;;;;1.83;0.10;;;;;;;;;;5010874;28;20032;-74
2021/12/02 02:28:23;;;;;;;2.03;0.57;;;;;;;;;;4997359;28;20044;-74
2021/12/02 02:30:49;;;;;;;3.13;1.27;;;;;;;;;;5010248;28;20029;-74
2021/12/02 02:33:17;;;;;;;1.27;0.15;;;;;;;;;;5011454;28;20105;-74
2021/12/02 02:35:43;;;;;;;0.68;0.03;;;;;;;;;;5012030;28;20060;-74
2021/12/02 02:38:08;;;;;;;0.98;0.10;;;;;;;;;;5000493;28;20027;-73
2021/12/02 02:40:34;;;;;;;1.48;0.17;;;;;;;;;;4998340;28;20010;-73
2021/12/02 02:43:07;;;;;;;0.60;0.15;;;;;;;;;;5005573;28;20025;-73
2021/12/02 02:45:32;;;;;;;1.45;0.00;;;;;;;;;;5011531;28;20026;-73
2021/12/02 02:47:57;;;;;;;0.93;0.10;;;;;;;;;;5009342;28;20113;-73
2021/12/02 02:50:22;;;;;;;2.00;0.52;;;;;;;;;;4993309;28;20042;-74
2021/12/02 02:52:48;;;;;;;2.38;0.17;;;;;;;;;;5002610;28;20022;-73
2021/12/02 02:55:21;;;;;;;1.73;0.13;;;;;;;;;;5010454;28;20030;-74
2021/12/02 02:58:09;;;;;;;1.77;0.10;;;;;;;;;;5008312;28;20430;-74
2021/12/02 03:00:40;;;;;;;1.38;0.10;;;;;;;;;;4993173;28;20034;-73
2021/12/02 03:08:37;;;;;;;1.05;0.20;;;;;;;;;;4975958;28;20046;-74
2021/12/02 03:11:02;;;;;;;0.82;0.10;;;;;;;;;;4988468;28;20545;-74
2021/12/02 03:13:48;;;;;;;1.85;0.20;;;;;;;;;;4972674;28;20036;-74
2021/12/02 03:18:57;;;;;;;1.77;0.10;;;;;;;;;;4989646;28;20033;-74
2021/12/02 03:21:23;;;;;;;0.13;0.10;;;;;;;;;;4989845;28;20109;-74
2021/12/02 03:23:51;;;;;;;2.47;0.32;;;;;;;;;;4989399;28;20050;-74
2021/12/02 03:26:17;;;;;;;1.08;0.20;;;;;;;;;;4972695;28;20129;-74
2021/12/02 03:28:42;;;;;;;3.38;0.35;;;;;;;;;;4986319;28;20170;-74
2021/12/02 03:31:10;;;;;;;2.15;0.20;;;;;;;;;;4989522;28;20161;-74
2021/12/02 03:33:35;;;;;;;2.78;0.20;;;;;;;;;;4972484;28;20526;-73
2021/12/02 03:36:00;;;;;;;1.10;0.10;;;;;;;;;;4989647;28;20029;-74
2021/12/02 03:38:26;;;;;;;1.60;0.10;;;;;;;;;;4989315;28;20026;-74
2021/12/02 03:40:51;;;;;;;1.20;0.20;;;;;;;;;;4990091;28;20518;-74
2021/12/02 03:43:16;;;;;;;1.70;0.20;;;;;;;;;;4989246;28;20038;-74
2021/12/02 03:45:41;;;;;;;0.40;0.10;;;;;;;;;;5002079;28;20125;-73
2021/12/02 03:48:06;;;;;;;3.55;0.20;;;;;;;;;;4993654;28;20033;-74
2021/12/02 03:50:32;;;;;;;2.33;0.20;;;;;;;;;;4997259;28;20034;-74
2021/12/02 03:52:57;;;;;;;1.92;0.17;;;;;;;;;;5010553;28;20060;-74
2021/12/02 03:55:24;;;;;;;1.42;0.20;;;;;;;;;;5013069;28;20084;-74
2021/12/02 03:57:49;;;;;;;2.05;0.20;;;;;;;;;;5011305;28;20083;-74
2021/12/02 04:00:15;;;;;;;2.10;0.20;;;;;;;;;;5008584;28;20025;-74
2021/12/02 04:02:40;;;;;;;2.47;0.22;;;;;;;;;;5014101;28;20093;-74
2021/12/02 04:05:06;;;;;;;2.58;0.60;;;;;;;;;;4979771;28;20398;-74
2021/12/02 04:07:31;;;;;;;1.55;0.20;;;;;;;;;;5013284;28;20034;-75
2021/12/02 04:09:57;;;;;;;3.20;0.20;;;;;;;;;;5013301;28;20486;-74
2021/12/02 04:12:35;;;;;;;1.38;0.10;;;;;;;;;;5013226;28;20034;-74
2021/12/02 04:15:03;;;;;;;2.20;0.20;;;;;;;;;;5013501;28;20029;-74
2021/12/02 04:17:40;;;;;;;1.65;0.20;;;;;;;;;;5013264;28;20030;-75
2021/12/02 04:20:07;;;;;;;1.77;0.10;;;;;;;;;;5012739;28;20120;-74
2021/12/02 04:22:32;;;;;;;0.88;0.13;;;;;;;;;;5011180;28;20062;-75
2021/12/02 04:24:57;;;;;;;1.05;0.10;;;;;;;;;;5013880;28;20040;-74
2021/12/02 04:27:22;;;;;;;1.08;0.20;;;;;;;;;;4995819;28;20042;-75
2021/12/02 04:29:47;;;;;;;1.30;0.20;;;;;;;;;;4986468;28;20035;-74
2021/12/02 04:32:13;;;;;;;2.10;0.10;;;;;;;;;;5012240;28;20018;-73
2021/12/02 04:34:38;;;;;;;0.38;0.10;;;;;;;;;;4996202;28;20026;-74
2021/12/02 04:37:03;;;;;;;0.95;0.10;;;;;;;;;;5005507;28;20017;-74
2021/12/02 04:39:28;;;;;;;2.70;0.17;;;;;;;;;;5014239;28;20389;-74
2021/12/02 04:41:54;;;;;;;2.30;0.30;;;;;;;;;;5009487;28;20121;-73
2021/12/02 04:44:19;;;;;;;1.20;0.10;;;;;;;;;;4996516;28;20112;-74
2021/12/02 04:46:44;;;;;;;1.60;0.20;;;;;;;;;;5012283;28;20024;-73
2021/12/02 04:49:09;;;;;;;1.30;0.22;;;;;;;;;;4997188;28;20034;-73
2021/12/02 04:51:35;;;;;;;0.80;0.20;;;;;;;;;;4991866;28;20026;-73
2021/12/02 04:54:00;;;;;;;1.83;0.30;;;;;;;;;;5013955;28;20014;-73
2021/12/02 04:56:25;;;;;;;1.90;0.10;;;;;;;;;;4995309;28;20125;-73
2021/12/02 04:58:50;;;;;;;3.75;0.47;;;;;;;;;;5007831;28;20107;-74
2021/12/02 05:01:15;;;;;;;1.60;0.20;;;;;;;;;;5008468;28;20026;-73
2021/12/02 05:03:41;;;;;;;1.55;0.20;;;;;;;;;;5011768;28;20037;-73
2021/12/02 05:06:06;;;;;;;0.55;0.30;;;;;;;;;;5011401;28;20033;-73
2021/12/02 05:08:31;;;;;;;1.98;0.30;;;;;;;;;;5010750;28;20022;-74
2021/12/02 05:10:56;;;;;;;0.75;0.28;;;;;;;;;;5011390;28;20512;-73
2021/12/02 05:13:22;;;;;;;1.55;0.40;;;;;;;;;;5009232;28;20068;-73
2021/12/02 05:15:47;;;;;;;4.32;0.40;;;;;;;;;;5008895;28;20022;-73
2021/12/02 05:18:12;;;;;;;0.98;0.10;;;;;;;;;;5006520;28;20053;-73
2021/12/02 05:20:37;;;;;;;1.90;0.20;;;;;;;;;;5010489;28;20033;-72
2021/12/02 05:23:03;;;;;;;2.67;0.20;;;;;;;;;;5005554;28;20054;-73
2021/12/02 05:25:28;;;;;;;1.83;0.30;;;;;;;;;;4995051;28;20376;-73
2021/12/02 05:27:53;;;;;;;2.53;0.25;;;;;;;;;;5005970;28;20084;-73
2021/12/02 05:30:18;;;;;;;2.35;0.20;;;;;;;;;;5007829;28;20088;-74
2021/12/02 05:32:43;;;;;;;1.13;0.20;;;;;;;;;;5010099;28;20022;-74
2021/12/02 05:35:09;;;;;;;2.00;0.20;;;;;;;;;;5009588;28;20026;-73
2021/12/02 05:37:34;;;;;;;1.05;0.10;;;;;;;;;;5011120;28;20097;-73
2021/12/02 05:39:59;;;;;;;2.03;0.20;;;;;;;;;;5010898;28;20053;-73
2021/12/02 05:42:24;;;;;;;2.65;0.30;;;;;;;;;;5012315;28;20394;-73
2021/12/02 05:44:49;;;;;;;2.10;0.20;;;;;;;;;;5010237;28;20041;-73
2021/12/02 05:47:15;;;;;;;1.73;0.22;;;;;;;;;;4993317;28;20402;-73
2021/12/02 05:49:40;;;;;;;1.73;0.30;;;;;;;;;;5012437;28;20486;-73
2021/12/02 05:52:05;;;;;;;1.88;0.38;;;;;;;;;;4995583;28;20109;-74
2021/12/02 05:54:31;;;;;;;1.98;0.17;;;;;;;;;;5004467;28;20030;-73
2021/12/02 05:56:56;;;;;;;2.50;1.10;;;;;;;;;;5012422;28;20024;-74
2021/12/02 05:59:21;;;;;;;3.75;0.35;;;;;;;;;;4985401;28;20033;-74
2021/12/02 06:01:47;;;;;;;2.58;0.32;;;;;;;;;;4999121;28;20390;-74
2021/12/02 06:04:12;;;;;;;6.15;1.55;;;;;;;;;;4998477;28;20034;-74
2021/12/02 06:06:38;;;;;;;1.25;0.38;;;;;;;;;;5011003;28;20053;-74
2021/12/02 06:09:04;;;;;;;3.03;0.50;;;;;;;;;;5009977;28;20112;-74
2021/12/02 06:11:29;;;;;;;3.50;0.20;;;;;;;;;;5006405;28;20475;-74
2021/12/02 06:13:54;;;;;;;2.55;0.43;;;;;;;;;;4993330;28;20451;-74
2021/12/02 06:16:21;;;;;;;1.92;0.40;;;;;;;;;;4991896;28;20129;-74
2021/12/02 06:18:46;;;;;;;1.85;0.30;;;;;;;;;;4995733;28;20022;-75
2021/12/02 06:21:11;;;;;;;1.15;0.20;;;;;;;;;;5011596;28;20305;-75
2021/12/02 06:23:39;;;;;;;1.80;0.30;;;;;;;;;;4982638;28;20080;-73
2021/12/02 06:26:04;;;;;;;3.97;0.60;;;;;;;;;;4993178;28;20110;-73
2021/12/02 06:28:30;;;;;;;1.67;0.22;;;;;;;;;;4996900;28;20121;-74
2021/12/02 06:30:55;;;;;;;2.20;0.40;;;;;;;;;;4991529;28;20108;-74
2021/12/02 06:33:20;;;;;;;4.45;0.20;;;;;;;;;;5008020;28;20042;-73
2021/12/02 06:35:46;;;;;;;2.65;0.77;;;;;;;;;;4987650;28;20081;-74
2021/12/02 06:38:11;;;;;;;2.85;0.30;;;;;;;;;;5006617;28;20359;-73
2021/12/02 06:40:38;;;;;;;2.55;0.20;;;;;;;;;;5011576;28;20022;-73
2021/12/02 06:43:04;;;;;;;1.27;0.30;;;;;;;;;;4994599;28;20022;-73
2021/12/02 06:45:29;;;;;;;2.00;0.30;;;;;;;;;;5007007;28;20037;-74
2021/12/02 06:47:59;;;;;;;2.08;0.30;;;;;;;;;;5007966;28;20435;-73
2021/12/02 06:50:24;;;;;;;2.70;0.47;;;;;;;;;;4994151;28;20505;-73
2021/12/02 06:52:50;;;;;;;2.30;0.30;;;;;;;;;;5010137;28;20022;-73
2021/12/02 06:55:16;;;;;;;2.00;0.35;;;;;;;;;;5009109;28;20021;-74
2021/12/02 06:57:42;;;;;;;1.52;0.20;;;;;;;;;;4992129;28;20033;-73
2021/12/02 07:00:09;;;;;;;4.20;0.85;;;;;;;;;;5005852;28;20034;-73
2021/12/02 07:02:34;;;;;;;3.65;0.40;;;;;;;;;;5011604;28;20025;-73
2021/12/02 07:05:01;;;;;;;2.90;0.63;;;;;;;;;;4993135;28;20030;-73
2021/12/02 07:07:30;;;;;;;1.80;0.40;;;;;;;;;;5004776;28;20022;-73
2021/12/02 07:09:56;;;;;;;2.75;0.28;;;;;;;;;;5009756;28;20124;-74
2021/12/02 07:12:28;;;;;;;2.58;0.45;;;;;;;;;;4994388;28;20517;-74
2021/12/02 07:14:54;;;;;;;2.92;0.50;;;;;;;;;;4994825;28;20030;-74
2021/12/02 07:17:19;;;;;;;2.60;0.28;;;;;;;;;;5022306;28;20033;-75
2021/12/02 07:19:44;;;;;;;2.30;0.40;;;;;;;;;;5010876;28;20537;-75
2021/12/02 07:22:09;;;;;;;0.63;0.20;;;;;;;;;;4994127;28;20026;-75
2021/12/02 07:24:34;;;;;;;1.25;0.20;;;;;;;;;;5013392;28;20053;-75
2021/12/02 07:27:00;;;;;;;3.22;0.30;;;;;;;;;;4995850;28;20022;-75
2021/12/02 07:29:25;;;;;;;2.00;0.25;;;;;;;;;;5005096;28;20026;-75
2021/12/02 07:31:50;;;;;;;1.40;0.30;;;;;;;;;;5010605;28;20405;-75
2021/12/02 07:34:17;;;;;;;3.25;0.40;;;;;;;;;;5013308;28;20025;-75
2021/12/02 07:36:43;;;;;;;3.95;0.80;;;;;;;;;;5012293;28;20201;-75
2021/12/02 07:39:09;;;;;;;3.88;0.68;;;;;;;;;;5013838;28;20036;-75
2021/12/02 07:41:35;;;;;;;2.13;0.57;;;;;;;;;;5015406;28;20033;-75
2021/12/02 07:44:00;;;;;;;2.78;0.80;;;;;;;;;;4997407;28;20040;-75
2021/12/02 07:46:26;;;;;;;3.15;0.47;;;;;;;;;;5012766;28;20436;-75
2021/12/02 07:48:52;;;;;;;1.65;0.47;;;;;;;;;;5012758;28;20045;-75
2021/12/02 07:51:18;;;;;;;2.38;0.80;;;;;;;;;;5013282;28;20459;-75
2021/12/02 07:53:44;;;;;;;1.90;0.68;;;;;;;;;;5014336;28;20117;-74
2021/12/02 07:56:11;;;;;;;3.47;0.95;;;;;;;;;;5013402;28;20391;-75
2021/12/02 07:58:38;;;;;;;2.28;0.70;;;;;;;;;;5005229;28;20417;-75
2021/12/02 08:01:04;;;;;;;2.72;0.60;;;;;;;;;;4997071;28;20042;-75
2021/12/02 08:03:29;;;;;;;3.10;0.70;;;;;;;;;;5004202;28;20121;-75
2021/12/02 08:05:55;;;;;;;3.08;0.70;;;;;;;;;;5019072;28;20028;-75
2021/12/02 08:08:20;;;;;;;3.72;0.80;;;;;;;;;;5016209;28;20025;-75
2021/12/02 08:10:45;;;;;;;1.98;0.50;;;;;;;;;;5011762;28;20514;-75
2021/12/02 08:13:13;;;;;;;2.20;0.52;;;;;;;;;;5008174;28;20026;-76
2021/12/02 08:15:38;;;;;;;3.88;0.60;;;;;;;;;;4978595;28;20025;-75
2021/12/02 08:18:03;;;;;;;3.72;0.65;;;;;;;;;;5007077;28;20113;-75
2021/12/02 08:20:29;;;;;;;1.67;0.40;;;;;;;;;;4985326;28;20092;-75
2021/12/02 08:22:54;;;;;;;3.22;0.43;;;;;;;;;;5014781;28;20053;-75
2021/12/02 08:25:20;;;;;;;4.18;1.00;;;;;;;;;;5013436;28;20105;-75
2021/12/02 08:27:46;;;;;;;2.00;0.45;;;;;;;;;;5000624;28;20056;-75
2021/12/02 08:30:12;;;;;;;1.83;0.30;;;;;;;;;;5009676;28;20478;-75
2021/12/02 08:32:42;;;;;;;2.25;0.30;;;;;;;;;;5002933;28;20076;-75
2021/12/02 08:35:07;;;;;;;1.35;0.30;;;;;;;;;;5013024;28;20056;-75
2021/12/02 08:37:35;;;;;;;3.95;0.40;;;;;;;;;;5014598;28;20045;-75
2021/12/02 08:40:01;;;;;;;1.77;0.30;;;;;;;;;;4996794;28;20065;-75
2021/12/02 08:42:27;;;;;;;3.97;0.43;;;;;;;;;;5011203;28;20053;-75
2021/12/02 08:44:53;;;;;;;1.67;0.20;;;;;;;;;;5014472;28;20021;-74
2021/12/02 08:47:21;;;;;;;2.90;0.20;;;;;;;;;;4998516;28;20036;-75
2021/12/02 08:49:47;;;;;;;2.88;0.30;;;;;;;;;;5013813;28;20036;-75
2021/12/02 08:52:12;;;;;;;2.75;0.55;;;;;;;;;;5012863;28;20026;-74
2021/12/02 08:54:37;;;;;;;2.38;0.30;;;;;;;;;;5025971;28;20032;-74
2021/12/02 08:57:02;;;;;;;2.92;0.28;;;;;;;;;;5032279;28;20026;-75
2021/12/02 08:59:28;;;;;;;2.78;0.35;;;;;;;;;;5005501;28;20403;-75
2021/12/02 09:01:53;;;;;;;2.03;0.30;;;;;;;;;;5005835;28;20041;-75
2021/12/02 09:04:18;;;;;;;2.10;0.40;;;;;;;;;;5008416;28;20033;-75
2021/12/02 09:06:44;;;;;;;3.35;0.40;;;;;;;;;;4994879;28;20041;-76
2021/12/02 09:09:09;;;;;;;2.00;0.28;;;;;;;;;;5011104;28;20168;-74
2021/12/02 09:11:34;;;;;;;4.22;0.30;;;;;;;;;;5006332;28;20037;-75
2021/12/02 09:14:02;;;;;;;1.30;0.22;;;;;;;;;;5012236;28;20041;-75
2021/12/02 09:16:29;;;;;;;3.90;0.30;;;;;;;;;;5007834;28;20030;-75
2021/12/02 09:18:55;;;;;;;2.13;0.20;;;;;;;;;;5008851;28;20053;-75
2021/12/02 09:21:20;;;;;;;3.83;0.45;;;;;;;;;;5012108;28;20026;-75
2021/12/02 09:23:46;;;;;;;3.60;0.30;;;;;;;;;;5010497;28;20104;-75
2021/12/02 09:26:11;;;;;;;1.73;0.28;;;;;;;;;;5011969;28;20026;-75
2021/12/02 09:28:36;;;;;;;1.27;0.20;;;;;;;;;;4991312;28;20027;-75
2021/12/02 09:31:01;;;;;;;3.00;0.30;;;;;;;;;;5005348;28;20026;-74
2021/12/02 09:33:27;;;;;;;1.67;0.32;;;;;;;;;;5012356;28;20022;-74
2021/12/02 09:35:52;;;;;;;3.10;1.10;;;;;;;;;;5012821;28;20029;-75
2021/12/02 09:38:17;;;;;;;3.92;1.00;;;;;;;;;;5003911;28;20022;-74
2021/12/02 09:40:44;;;;;;;4.10;1.27;;;;;;;;;;4991775;28;20512;-74
2021/12/02 09:43:11;;;;;;;1.23;0.40;;;;;;;;;;5011360;28;20029;-75
2021/12/02 09:45:37;;;;;;;2.70;0.68;;;;;;;;;;5011460;28;20088;-75
2021/12/02 09:48:02;;;;;;;1.95;0.30;;;;;;;;;;4993986;28;20282;-75
2021/12/02 09:50:32;;;;;;;5.28;1.55;;;;;;;;;;4999349;28;20113;-74
2021/12/02 09:53:07;;;;;;;3.42;0.50;;;;;;;;;;5009468;28;20025;-75
2021/12/02 09:58:21;;;;;;;2.30;0.20;;;;;;;;;;4988402;28;20499;-75
2021/12/02 10:00:56;;;;;;;3.30;0.50;;;;;;;;;;5005925;28;20125;-75
2021/12/02 10:03:43;;;;;;;2.92;0.43;;;;;;;;;;4998884;28;20022;-75
2021/12/02 10:06:09;;;;;;;2.22;0.38;;;;;;;;;;5008343;28;20396;-76
2021/12/02 10:08:40;;;;;;;4.25;0.47;;;;;;;;;;4982556;28;20041;-75
2021/12/02 10:11:13;;;;;;;3.08;0.50;;;;;;;;;;5007354;28;20200;-75
2021/12/02 10:13:46;;;;;;;1.80;0.30;;;;;;;;;;5010882;28;20029;-74
2021/12/02 10:16:26;;;;;;;2.47;0.30;;;;;;;;;;5005025;28;20019;-75
2021/12/02 10:18:56;;;;;;;3.20;0.40;;;;;;;;;;5008450;28;20029;-75
2021/12/02 10:21:26;;;;;;;3.88;0.30;;;;;;;;;;4991927;28;20045;-75
2021/12/02 10:23:53;;;;;;;3.17;0.40;;;;;;;;;;4991601;28;20098;-75
2021/12/02 10:26:19;;;;;;;2.92;0.30;;;;;;;;;;4992463;28;20037;-75
2021/12/02 10:28:45;;;;;;;4.13;0.30;;;;;;;;;;4995272;28;20038;-75
2021/12/02 10:31:16;;;;;;;4.65;0.40;;;;;;;;;;4999992;28;20037;-75
2021/12/02 10:33:46;;;;;;;3.58;0.25;;;;;;;;;;5004936;28;20026;-75
2021/12/02 10:36:32;;;;;;;3.50;0.32;;;;;;;;;;5008771;28;20018;-75
2021/12/02 10:38:59;;;;;;;2.00;0.82;;;;;;;;;;5010699;28;20022;-75
2021/12/02 10:41:26;;;;;;;5.07;0.30;;;;;;;;;;5012013;28;20025;-75
2021/12/02 10:44:04;;;;;;;2.58;0.30;;;;;;;;;;5010719;28;20420;-75
2021/12/02 10:46:29;;;;;;;3.63;0.65;;;;;;;;;;5002990;28;20031;-75
2021/12/02 10:48:55;;;;;;;5.53;0.52;;;;;;;;;;4991097;28;20034;-75
2021/12/02 10:51:33;;;;;;;3.53;0.38;;;;;;;;;;4984759;28;20038;-75
2021/12/02 10:53:59;;;;;;;6.18;0.68;;;;;;;;;;5008809;28;20379;-75
2021/12/02 10:56:35;;;;;;;2.20;0.20;;;;;;;;;;5003228;28;20537;-75
2021/12/02 10:59:19;;;;;;;3.30;0.57;;;;;;;;;;5009601;28;20049;-75
2021/12/02 11:01:44;;;;;;;3.33;0.30;;;;;;;;;;5008650;28;20088;-75
2021/12/02 11:04:12;;;;;;;2.13;0.65;;;;;;;;;;4998522;28;20487;-76
2021/12/02 11:06:41;;;;;;;4.07;0.50;;;;;;;;;;4997696;28;20025;-76
2021/12/02 11:09:22;;;;;;;3.17;0.40;;;;;;;;;;4981187;28;20026;-75
2021/12/02 11:12:03;;;;;;;2.40;0.55;;;;;;;;;;5016071;28;20037;-75
2021/12/02 11:14:28;;;;;;;4.38;0.28;;;;;;;;;;5018280;28;20025;-76
2021/12/02 11:17:05;;;;;;;1.60;0.20;;;;;;;;;;5017048;28;20025;-76
2021/12/02 11:19:30;;;;;;;2.70;0.85;;;;;;;;;;5016878;28;20592;-76
2021/12/02 11:22:03;;;;;;;2.38;0.25;;;;;;;;;;5015360;28;20026;-76
2021/12/02 11:24:32;;;;;;;3.05;0.40;;;;;;;;;;5017078;28;20092;-76
2021/12/02 11:27:09;;;;;;;4.55;0.50;;;;;;;;;;5018317;28;20033;-75
2021/12/02 11:29:48;;;;;;;2.13;0.30;;;;;;;;;;5009978;28;20113;-75
2021/12/02 11:32:35;;;;;;;2.53;0.30;;;;;;;;;;5015073;28;20545;-76
2021/12/02 11:35:06;;;;;;;8.32;0.60;;;;;;;;;;5018029;28;20490;-76
2021/12/02 11:37:32;;;;;;;1.92;0.35;;;;;;;;;;5007762;28;20021;-76
2021/12/02 11:40:01;;;;;;;4.05;0.30;;;;;;;;;;5002346;28;20474;-76
2021/12/02 11:42:27;;;;;;;3.40;0.28;;;;;;;;;;5015470;28;20061;-76
2021/12/02 11:44:52;;;;;;;2.40;0.30;;;;;;;;;;5016600;28;20026;-76
2021/12/02 11:47:18;;;;;;;2.15;0.22;;;;;;;;;;5016670;28;20026;-75
2021/12/02 11:49:43;;;;;;;2.70;0.20;;;;;;;;;;5017187;28;20657;-76
2021/12/02 11:52:09;;;;;;;4.13;0.30;;;;;;;;;;4995533;28;20037;-75
2021/12/02 11:54:34;;;;;;;3.28;0.30;;;;;;;;;;5007540;28;20104;-75
2021/12/02 11:56:59;;;;;;;3.00;0.30;;;;;;;;;;5004416;28;20022;-74
2021/12/02 11:59:26;;;;;;;3.00;0.43;;;;;;;;;;4992533;28;20030;-75
2021/12/02 12:01:55;;;;;;;5.43;0.35;;;;;;;;;;5016503;28;20133;-76
2021/12/02 12:04:21;;;;;;;3.75;0.30;;;;;;;;;;5016116;28;20116;-75
2021/12/02 12:06:51;;;;;;;1.67;0.47;;;;;;;;;;5015318;28;20164;-76
2021/12/02 12:09:18;;;;;;;4.25;0.43;;;;;;;;;;5016906;28;20033;-74
2021/12/02 12:11:44;;;;;;;2.97;0.38;;;;;;;;;;5013177;28;20053;-75
2021/12/02 12:14:10;;;;;;;3.05;0.43;;;;;;;;;;5013270;28;20040;-75
2021/12/02 12:16:41;;;;;;;3.55;0.22;;;;;;;;;;5013234;28;20022;-75
2021/12/02 12:19:33;;;;;;;3.92;0.52;;;;;;;;;;5013113;28;20029;-75
2021/12/02 12:22:13;;;;;;;6.50;0.50;;;;;;;;;;4995321;28;20046;-75
2021/12/02 12:24:44;;;;;;;4.00;0.52;;;;;;;;;;5004930;28;20042;-75
2021/12/02 12:27:12;;;;;;;11.07;2.45;;;;;;;;;;5013241;28;20018;-75
2021/12/02 12:29:38;;;;;;;2.35;0.50;;;;;;;;;;5009710;28;20486;-75
2021/12/02 12:32:08;;;;;;;3.78;0.30;;;;;;;;;;4994259;28;20026;-75
2021/12/02 12:34:37;;;;;;;2.03;0.57;;;;;;;;;;5011002;28;20026;-74
2021/12/02 12:37:27;;;;;;;2.60;0.30;;;;;;;;;;5012150;28;20503;-74
2021/12/02 12:40:07;;;;;;;2.60;0.47;;;;;;;;;;4995014;28;20237;-75
2021/12/02 12:42:33;;;;;;;3.90;0.52;;;;;;;;;;5003874;28;20028;-75
2021/12/02 12:44:59;;;;;;;4.25;0.30;;;;;;;;;;4995830;28;20355;-74
2021/12/02 12:47:43;;;;;;;4.28;0.55;;;;;;;;;;5006751;28;20026;-74
2021/12/02 12:50:20;;;;;;;2.22;0.85;;;;;;;;;;5010763;28;20034;-75
2021/12/02 12:52:46;;;;;;;2.55;0.40;;;;;;;;;;5014166;28;20486;-76
2021/12/02 12:55:15;;;;;;;5.30;1.00;;;;;;;;;;4998549;28;20019;-75
2021/12/02 12:57:59;;;;;;;4.80;0.50;;;;;;;;;;4976813;28;20129;-75
2021/12/02 13:00:38;;;;;;;3.55;0.40;;;;;;;;;;5000378;28;20027;-75
2021/12/02 13:03:04;;;;;;;3.88;0.90;;;;;;;;;;4999478;28;20026;-75
2021/12/02 13:05:49;;;;;;;3.42;0.40;;;;;;;;;;5003110;28;20099;-75
2021/12/02 13:08:19;;;;;;;7.13;0.50;;;;;;;;;;5012315;28;20437;-75
2021/12/02 13:10:59;;;;;;;4.03;0.50;;;;;;;;;;5013115;28;20542;-74
2021/12/02 13:13:29;;;;;;;5.95;0.40;;;;;;;;;;5003706;28;20022;-75
2021/12/02 13:16:30;;;;;;;5.75;0.60;;;;;;;;;;5005557;28;20105;-75
2021/12/02 13:18:57;;;;;;;3.50;0.20;;;;;;;;;;4991521;28;20019;-75
2021/12/02 13:21:32;;;;;;;2.85;0.30;;;;;;;;;;4990686;28;20073;-75
2021/12/02 13:23:57;;;;;;;4.20;0.30;;;;;;;;;;4989926;28;20105;-75
2021/12/02 13:26:26;;;;;;;4.57;0.50;;;;;;;;;;4991031;28;20043;-75
2021/12/02 13:28:53;;;;;;;7.80;0.60;;;;;;;;;;4972202;28;20022;-75
2021/12/02 13:31:20;;;;;;;2.58;0.50;;;;;;;;;;4982165;28;20089;-75
2021/12/02 13:33:49;;;;;;;2.83;0.35;;;;;;;;;;4990820;28;20117;-75
2021/12/02 13:36:15;;;;;;;3.08;0.52;;;;;;;;;;4991349;28;20422;-75
2021/12/02 13:38:43;;;;;;;5.75;0.52;;;;;;;;;;4983094;28;20549;-75
2021/12/02 13:41:10;;;;;;;5.03;0.50;;;;;;;;;;4975801;28;20046;-75
2021/12/02 13:43:48;;;;;;;2.55;0.52;;;;;;;;;;4958375;28;20034;-75
2021/12/02 13:46:14;;;;;;;1.75;0.65;;;;;;;;;;4974672;28;20119;-75
2021/12/02 13:48:51;;;;;;;3.20;0.77;;;;;;;;;;4991185;28;20058;-75
2021/12/02 13:54:15;;;;;;;3.65;0.52;;;;;;;;;;5011603;28;20060;-75
2021/12/02 13:56:40;;;;;;;7.72;1.38;;;;;;;;;;5011471;28;20025;-75
2021/12/02 13:59:15;;;;;;;5.57;1.80;;;;;;;;;;4991240;28;20018;-75
2021/12/02 14:01:54;;;;;;;7.25;1.30;;;;;;;;;;5011067;28;20033;-75
2021/12/02 14:04:19;;;;;;;5.13;0.68;;;;;;;;;;5012280;28;20049;-75
2021/12/02 14:06:44;;;;;;;3.65;0.85;;;;;;;;;;5008719;28;20058;-75
2021/12/02 14:09:17;;;;;;;2.58;0.40;;;;;;;;;;5008434;28;20144;-75
2021/12/02 14:11:43;;;;;;;4.65;0.70;;;;;;;;;;5010758;28;20038;-75
2021/12/02 14:14:14;;;;;;;1.52;0.40;;;;;;;;;;5011622;28;20028;-75
2021/12/02 14:16:39;;;;;;;4.18;0.47;;;;;;;;;;5007679;28;20080;-75
2021/12/02 14:19:09;;;;;;;2.95;0.40;;;;;;;;;;5011802;28;20018;-75
2021/12/02 14:21:34;;;;;;;2.80;0.40;;;;;;;;;;5010706;28;20026;-75
2021/12/02 14:23:59;;;;;;;3.10;0.60;;;;;;;;;;5009990;28;20052;-75
2021/12/02 14:26:26;;;;;;;1.42;0.30;;;;;;;;;;4993484;28;20531;-75
2021/12/02 14:28:52;;;;;;;3.80;0.70;;;;;;;;;;5009878;28;20030;-75
2021/12/02 14:31:21;;;;;;;3.70;0.50;;;;;;;;;;5011468;28;20032;-75
2021/12/02 14:33:47;;;;;;;4.07;0.40;;;;;;;;;;5010404;28;20021;-75
2021/12/02 14:36:15;;;;;;;1.70;0.40;;;;;;;;;;5012269;28;20017;-75
2021/12/02 14:38:42;;;;;;;6.10;0.77;;;;;;;;;;4993575;28;20022;-75
2021/12/02 14:41:09;;;;;;;3.30;1.02;;;;;;;;;;4991271;28;20077;-75
2021/12/02 14:43:34;;;;;;;5.35;0.70;;;;;;;;;;5006465;28;20049;-75
2021/12/02 14:46:11;;;;;;;3.20;0.93;;;;;;;;;;5001702;28;20061;-75
2021/12/02 14:48:36;;;;;;;4.03;1.77;;;;;;;;;;4992640;28;20026;-75
2021/12/02 14:51:05;;;;;;;4.55;2.03;;;;;;;;;;5007273;28;20105;-74
2021/12/02 14:53:32;;;;;;;4.07;1.95;;;;;;;;;;5011925;28;20049;-74
2021/12/02 14:55:59;;;;;;;4.07;2.17;;;;;;;;;;5008991;28;20018;-75
2021/12/02 14:58:26;;;;;;;6.28;3.22;;;;;;;;;;5000343;28;20081;-74
2021/12/02 15:01:22;;;;;;;8.55;3.58;;;;;;;;;;5006044;28;20022;-74
2021/12/02 15:03:48;;;;;;;6.60;2.70;;;;;;;;;;4989928;28;20034;-74